Time;durP1;ratioP1;P1;durP2;ratioP2;P2;SDS_P1;SDS_P2;PMS_P1;PMS_P2;Temp;Humidity;BMP_temperature;BMP_pressure;BME280_temperature;BME280_humidity;BME280_pressure;Samples;Min_cycle;Max_cycle;Signal;HPM_P1;HPM_P2
2021/05/10 00:04:02;;;;;;;5.80;3.35;;;18.70;66.80;;;;;;10527304;28;20111;-51
2021/05/10 00:09:05;;;;;;;4.25;3.15;;;18.70;66.70;;;;;;10559307;28;20115;-50
2021/05/10 00:14:06;;;;;;;4.22;3.30;;;18.70;66.80;;;;;;10530747;28;20117;-53
2021/05/10 00:19:07;;;;;;;3.38;3.08;;;18.70;66.80;;;;;;10543686;28;20077;-52
2021/05/10 00:24:08;;;;;;;4.45;3.25;;;18.70;66.80;;;;;;10569044;28;20039;-50
2021/05/10 00:29:08;;;;;;;4.32;3.80;;;18.70;66.80;;;;;;10545901;28;20391;-52
2021/05/10 00:34:09;;;;;;;4.18;3.20;;;18.70;66.80;;;;;;10565806;28;20038;-52
2021/05/10 00:39:10;;;;;;;3.55;3.17;;;18.70;66.90;;;;;;10566460;28;20391;-53
2021/05/10 00:44:11;;;;;;;4.07;3.53;;;18.70;66.90;;;;;;10554965;28;20028;-53
2021/05/10 00:49:12;;;;;;;3.97;3.47;;;18.70;66.90;;;;;;10542721;28;20107;-50
2021/05/10 00:54:12;;;;;;;4.65;3.28;;;18.70;66.90;;;;;;10542656;28;20040;-51
2021/05/10 00:59:14;;;;;;;4.30;3.15;;;18.70;66.80;;;;;;10542530;28;20075;-49
2021/05/10 01:04:15;;;;;;;3.85;3.38;;;18.70;66.80;;;;;;10542096;28;20043;-50
2021/05/10 01:09:15;;;;;;;3.30;3.00;;;18.70;66.70;;;;;;10541672;28;20528;-50
2021/05/10 01:14:16;;;;;;;3.92;3.45;;;18.70;66.80;;;;;;10554271;28;20035;-49
2021/05/10 01:19:18;;;;;;;4.63;3.67;;;18.60;66.70;;;;;;10557558;28;20452;-49
2021/05/10 01:24:19;;;;;;;4.38;3.05;;;18.70;66.80;;;;;;10565084;28;20040;-54
2021/05/10 01:29:20;;;;;;;4.00;3.58;;;18.70;66.80;;;;;;10580867;28;20106;-54
2021/05/10 01:34:21;;;;;;;4.30;3.90;;;18.70;66.80;;;;;;10558029;28;20361;-54
2021/05/10 01:39:22;;;;;;;3.97;3.47;;;18.70;66.80;;;;;;10559295;28;20048;-58
2021/05/10 01:44:22;;;;;;;4.90;3.17;;;18.70;66.80;;;;;;10540536;28;20115;-58
2021/05/10 01:49:23;;;;;;;4.13;3.47;;;18.70;66.70;;;;;;10540792;28;20067;-58
2021/05/10 01:54:24;;;;;;;3.83;3.15;;;18.70;66.80;;;;;;10540565;28;20028;-58
2021/05/10 01:59:24;;;;;;;5.13;3.95;;;18.70;66.80;;;;;;10539855;28;20115;-59
2021/05/10 02:04:25;;;;;;;4.50;3.90;;;18.60;66.70;;;;;;10563853;28;20126;-49
2021/05/10 02:09:26;;;;;;;4.07;3.63;;;18.60;66.70;;;;;;10571937;28;20028;-50
2021/05/10 02:14:26;;;;;;;3.90;3.50;;;18.60;66.70;;;;;;10549451;28;20497;-53
2021/05/10 02:19:27;;;;;;;5.63;4.05;;;18.60;66.70;;;;;;10538836;28;20063;-57
2021/05/10 02:24:28;;;;;;;4.35;3.50;;;18.60;66.60;;;;;;10565593;28;20383;-57
2021/05/10 02:29:28;;;;;;;4.43;3.38;;;18.70;66.70;;;;;;10538948;28;20110;-57
2021/05/10 02:34:29;;;;;;;4.22;3.35;;;18.60;66.50;;;;;;10539247;28;20101;-56
2021/05/10 02:39:30;;;;;;;4.22;3.55;;;18.60;66.60;;;;;;10556402;28;20056;-57
2021/05/10 02:44:31;;;;;;;4.63;3.42;;;18.60;66.60;;;;;;10549300;28;20122;-58
2021/05/10 02:49:31;;;;;;;5.28;3.70;;;18.60;66.60;;;;;;10542347;28;20035;-57
2021/05/10 02:54:32;;;;;;;4.50;3.70;;;18.60;66.60;;;;;;10506032;28;20119;-57
2021/05/10 02:59:33;;;;;;;5.10;4.13;;;18.60;66.60;;;;;;10538393;28;20024;-57
2021/05/10 03:04:34;;;;;;;3.72;3.30;;;18.60;66.50;;;;;;10570393;28;20066;-58
2021/05/10 03:09:34;;;;;;;4.80;4.30;;;18.60;66.40;;;;;;10536991;28;20030;-56
2021/05/10 03:14:35;;;;;;;5.07;3.72;;;18.60;66.40;;;;;;10564570;28;20063;-57
2021/05/10 03:19:36;;;;;;;3.95;3.38;;;18.60;66.40;;;;;;10537912;28;20364;-57
2021/05/10 03:24:37;;;;;;;4.07;3.67;;;18.60;66.30;;;;;;10538715;28;20028;-53
2021/05/10 03:29:37;;;;;;;4.57;3.83;;;18.60;66.30;;;;;;10537740;28;20024;-54
2021/05/10 03:34:38;;;;;;;4.57;3.80;;;18.60;66.30;;;;;;10558588;28;20046;-53
2021/05/10 03:39:39;;;;;;;4.00;3.58;;;18.60;66.20;;;;;;10556175;28;20060;-52
2021/05/10 03:44:39;;;;;;;4.22;3.60;;;18.60;66.10;;;;;;10572372;28;20102;-53
2021/05/10 03:49:40;;;;;;;4.45;3.80;;;18.60;66.10;;;;;;10519878;28;20085;-54
2021/05/10 03:54:41;;;;;;;4.53;3.28;;;18.60;66.00;;;;;;10562943;28;20047;-52
2021/05/10 03:59:42;;;;;;;4.10;3.28;;;18.60;66.00;;;;;;10562087;28;20138;-54
2021/05/10 04:04:51;;;;;;;3.75;3.15;;;18.60;65.80;;;;;;10568872;28;20031;-54
2021/05/10 04:15:05;;;;;;;6.05;3.10;;;18.60;65.60;;;;;;10556091;28;19915;-56
2021/05/10 04:20:07;;;;;;;3.90;3.40;;;18.60;65.60;;;;;;10579369;28;20496;-57
2021/05/10 04:25:08;;;;;;;4.57;3.40;;;18.60;65.60;;;;;;10570218;28;20042;-57
2021/05/10 04:30:10;;;;;;;3.35;2.65;;;18.60;64.90;;;;;;10574312;28;20440;-58
2021/05/10 04:35:12;;;;;;;3.92;3.00;;;18.50;65.20;;;;;;10550430;28;20056;-58
2021/05/10 04:40:13;;;;;;;4.03;3.08;;;18.50;65.10;;;;;;10542368;28;20028;-58
2021/05/10 04:45:14;;;;;;;3.38;2.40;;;18.60;64.60;;;;;;10566016;28;20472;-58
2021/05/10 04:50:16;;;;;;;3.80;2.70;;;18.50;64.30;;;;;;10541387;28;20103;-58
2021/05/10 04:55:17;;;;;;;5.70;2.97;;;18.50;64.00;;;;;;10560918;28;20034;-56
2021/05/10 05:00:18;;;;;;;6.70;3.20;;;18.60;64.10;;;;;;10569663;28;20023;-57
2021/05/10 05:05:19;;;;;;;5.65;2.75;;;18.50;65.20;;;;;;10565452;28;20036;-58
2021/05/10 05:10:21;;;;;;;6.47;2.90;;;18.60;65.60;;;;;;10564976;28;20020;-59
2021/05/10 05:15:22;;;;;;;5.15;2.47;;;18.60;65.50;;;;;;10564030;28;20028;-56
2021/05/10 05:20:23;;;;;;;3.25;2.95;;;18.60;66.10;;;;;;10558555;28;20413;-56
2021/05/10 05:25:24;;;;;;;5.57;2.97;;;18.60;65.90;;;;;;10544954;28;20111;-58
2021/05/10 05:30:24;;;;;;;8.18;3.17;;;18.70;66.40;;;;;;10565492;28;20032;-58
2021/05/10 05:35:25;;;;;;;8.13;2.95;;;18.60;66.40;;;;;;10541114;28;20047;-57
2021/05/10 05:40:26;;;;;;;6.63;3.28;;;18.60;66.70;;;;;;10570313;28;20427;-59
2021/05/10 05:45:27;;;;;;;6.95;3.05;;;18.70;66.80;;;;;;10551795;28;20055;-59
2021/05/10 05:50:27;;;;;;;12.95;3.05;;;18.70;66.60;;;;;;10540383;28;20023;-60
2021/05/10 05:55:29;;;;;;;12.77;3.33;;;18.70;66.80;;;;;;10561224;28;20028;-56
2021/05/10 06:00:30;;;;;;;8.43;3.38;;;18.70;66.60;;;;;;10559298;28;20117;-59
2021/05/10 06:05:30;;;;;;;9.88;3.00;;;18.70;66.80;;;;;;10556844;28;20019;-58
2021/05/10 06:10:31;;;;;;;10.77;3.05;;;18.70;66.90;;;;;;10567469;28;20012;-58
2021/05/10 06:15:32;;;;;;;12.60;3.60;;;18.70;67.00;;;;;;10573296;28;20131;-56
2021/05/10 06:20:33;;;;;;;12.10;3.25;;;18.70;67.10;;;;;;10542638;28;20028;-58
2021/05/10 06:25:34;;;;;;;11.10;3.17;;;18.70;67.30;;;;;;10547299;28;20126;-58
2021/05/10 06:30:34;;;;;;;12.90;3.00;;;18.70;67.30;;;;;;10541526;28;20030;-57
2021/05/10 06:35:35;;;;;;;17.85;3.65;;;18.80;67.70;;;;;;10559081;28;20035;-59
2021/05/10 06:40:36;;;;;;;9.68;3.30;;;18.70;68.00;;;;;;10554761;28;20479;-58
2021/05/10 06:45:37;;;;;;;10.38;2.85;;;18.70;67.60;;;;;;10543616;28;20028;-58
2021/05/10 06:50:37;;;;;;;7.00;2.50;;;18.80;67.20;;;;;;10566003;28;20383;-59
2021/05/10 06:55:38;;;;;;;5.97;2.47;;;18.80;66.90;;;;;;10556702;28;20034;-55
2021/05/10 07:00:39;;;;;;;6.72;2.25;;;18.80;66.90;;;;;;10552768;28;20173;-58
2021/05/10 07:05:40;;;;;;;4.32;2.38;;;18.70;66.70;;;;;;10556367;28;20023;-58
2021/05/10 07:10:45;;;;;;;4.50;1.85;;;18.70;66.50;;;;;;10557862;28;20032;-58
2021/05/10 07:15:46;;;;;;;4.85;2.25;;;18.70;66.60;;;;;;10537403;28;20035;-58
2021/05/10 07:20:48;;;;;;;5.78;2.17;;;18.70;66.60;;;;;;10549895;28;20487;-58
2021/05/10 07:25:52;;;;;;;5.70;2.00;;;18.70;66.50;;;;;;10533000;28;20043;-58
2021/05/10 07:30:52;;;;;;;5.57;2.90;;;18.70;66.50;;;;;;10538899;28;20031;-58
2021/05/10 07:35:53;;;;;;;3.00;1.77;;;18.70;66.50;;;;;;10531349;28;20390;-57
2021/05/10 07:40:54;;;;;;;3.95;2.15;;;18.70;66.50;;;;;;10554686;28;20024;-57
2021/05/10 07:45:55;;;;;;;3.88;1.80;;;18.70;66.40;;;;;;10580773;28;20032;-56
2021/05/10 07:50:56;;;;;;;5.13;2.70;;;18.70;66.40;;;;;;10578403;28;20036;-57
2021/05/10 07:55:57;;;;;;;5.88;2.40;;;18.70;66.30;;;;;;10560725;28;20369;-57
2021/05/10 08:01:01;;;;;;;4.13;1.70;;;18.70;66.30;;;;;;10541713;28;20032;-58
2021/05/10 08:06:02;;;;;;;5.60;2.42;;;18.70;66.30;;;;;;10559321;28;20044;-57
2021/05/10 08:11:05;;;;;;;4.22;1.83;;;18.70;66.20;;;;;;10542601;28;20036;-57
2021/05/10 08:16:05;;;;;;;3.85;2.40;;;18.70;66.10;;;;;;10542952;28;20438;-56
2021/05/10 08:21:06;;;;;;;3.47;1.70;;;18.70;66.00;;;;;;10549680;28;20039;-57
2021/05/10 08:26:07;;;;;;;4.55;1.70;;;18.70;66.00;;;;;;10563537;28;20494;-57
2021/05/10 08:31:08;;;;;;;4.00;1.95;;;18.70;66.00;;;;;;10541675;28;20099;-57
2021/05/10 08:36:08;;;;;;;5.43;1.83;;;18.70;66.10;;;;;;10553839;28;20060;-57
2021/05/10 08:41:09;;;;;;;3.92;2.08;;;18.70;66.10;;;;;;10543732;28;20028;-56
2021/05/10 08:46:10;;;;;;;2.63;1.63;;;18.70;66.10;;;;;;10537584;28;20479;-56
2021/05/10 08:51:11;;;;;;;5.15;2.28;;;18.70;66.10;;;;;;10570394;28;20028;-57
2021/05/10 08:56:12;;;;;;;4.22;1.88;;;18.70;66.10;;;;;;10527515;28;20050;-57
2021/05/10 09:01:14;;;;;;;2.08;1.48;;;18.70;66.10;;;;;;10552874;28;20035;-57
2021/05/10 09:06:21;;;;;;;3.85;1.85;;;18.70;66.10;;;;;;10566404;28;20028;-57
2021/05/10 09:11:22;;;;;;;2.28;1.73;;;18.70;66.10;;;;;;10581990;28;20027;-57
2021/05/10 09:16:23;;;;;;;2.47;1.65;;;18.70;66.10;;;;;;10542014;28;20028;-57
2021/05/10 09:21:29;;;;;;;9.50;1.77;;;18.70;66.10;;;;;;10541642;28;20024;-57
2021/05/10 09:26:35;;;;;;;2.47;1.98;;;18.70;66.10;;;;;;10527467;28;20023;-57
2021/05/10 09:31:48;;;;;;;3.22;1.60;;;18.70;66.00;;;;;;10541157;28;20529;-57
2021/05/10 09:36:49;;;;;;;2.78;1.40;;;18.70;66.00;;;;;;10540909;28;20484;-58
2021/05/10 09:42:03;;;;;;;2.17;1.50;;;18.70;66.00;;;;;;10541034;28;20108;-57
2021/05/10 09:47:04;;;;;;;2.75;1.55;;;18.70;65.80;;;;;;10569630;28;20027;-58
2021/05/10 09:52:24;;;;;;;3.15;1.83;;;18.70;65.80;;;;;;10582305;28;20036;-57
2021/05/10 09:57:26;;;;;;;3.83;2.53;;;18.70;65.80;;;;;;10540556;28;20841;-57
2021/05/10 10:02:33;;;;;;;3.40;2.05;;;18.70;65.80;;;;;;10551596;28;20028;-57
2021/05/10 10:07:38;;;;;;;1.67;1.17;;;18.70;65.80;;;;;;10563849;28;20027;-57
2021/05/10 10:12:40;;;;;;;2.70;1.50;;;18.70;65.80;;;;;;10545716;28;20081;-57
2021/05/10 10:17:44;;;;;;;2.30;1.63;;;18.70;65.70;;;;;;10521621;28;20035;-57
2021/05/10 10:22:45;;;;;;;3.70;1.45;;;18.70;65.70;;;;;;10533751;28;20391;-57
2021/05/10 10:27:47;;;;;;;3.00;1.52;;;18.70;65.70;;;;;;10549405;28;20031;-57
2021/05/10 10:32:49;;;;;;;2.85;1.77;;;18.70;65.70;;;;;;10549484;28;20034;-57
2021/05/10 10:37:51;;;;;;;2.28;1.20;;;18.70;65.60;;;;;;10580746;28;20259;-57
2021/05/10 10:42:51;;;;;;;2.00;1.20;;;18.70;65.60;;;;;;10549734;28;20114;-56
2021/05/10 10:47:57;;;;;;;2.67;1.38;;;18.70;65.70;;;;;;10548147;28;20024;-57
2021/05/10 10:53:02;;;;;;;3.30;1.63;;;18.70;65.70;;;;;;10538502;28;20031;-57
2021/05/10 10:58:12;;;;;;;2.58;1.88;;;18.70;65.80;;;;;;10549923;28;20024;-57
2021/05/10 11:03:31;;;;;;;2.35;1.63;;;18.60;65.70;;;;;;10579612;28;20491;-57
2021/05/10 11:08:47;;;;;;;1.98;1.33;;;18.70;65.80;;;;;;10578909;28;20028;-57
2021/05/10 11:13:48;;;;;;;2.38;1.50;;;18.70;65.80;;;;;;10573900;28;20035;-57
2021/05/10 11:18:52;;;;;;;6.38;1.95;;;18.70;65.70;;;;;;10528489;28;20028;-57
2021/05/10 11:24:01;;;;;;;1.58;1.15;;;18.70;65.80;;;;;;10546193;28;20020;-56
2021/05/10 11:29:01;;;;;;;1.52;1.10;;;18.60;65.80;;;;;;10565694;28;20062;-57
2021/05/10 11:34:09;;;;;;;3.15;1.65;;;18.70;65.70;;;;;;10536249;28;20027;-57
2021/05/10 11:39:12;;;;;;;1.95;1.48;;;18.60;65.70;;;;;;10528040;28;20054;-57
2021/05/10 11:44:21;;;;;;;2.72;1.85;;;18.60;65.60;;;;;;10582910;28;20031;-57
2021/05/10 11:49:47;;;;;;;1.80;1.38;;;18.70;65.70;;;;;;10574942;28;20101;-57
2021/05/10 11:54:52;;;;;;;2.35;1.55;;;18.70;65.70;;;;;;10553595;28;20061;-57
2021/05/10 12:00:00;;;;;;;2.45;1.10;;;18.60;65.70;;;;;;10561255;28;20032;-57
2021/05/10 12:05:06;;;;;;;3.03;1.55;;;18.70;65.80;;;;;;10554373;28;20488;-57
2021/05/10 12:10:09;;;;;;;3.17;1.70;;;18.70;65.80;;;;;;10543916;28;20031;-57
2021/05/10 12:15:30;;;;;;;2.38;1.50;;;18.70;65.90;;;;;;10553456;28;20021;-57
2021/05/10 12:20:32;;;;;;;1.70;1.35;;;18.70;66.00;;;;;;10543734;28;20047;-57
2021/05/10 12:25:38;;;;;;;2.15;1.40;;;18.70;66.00;;;;;;10558040;28;20070;-56
2021/05/10 12:30:45;;;;;;;3.40;1.90;;;18.70;66.10;;;;;;10559605;28;20110;-57
2021/05/10 12:35:48;;;;;;;2.03;1.30;;;18.80;66.20;;;;;;10553765;28;20135;-57
2021/05/10 12:40:49;;;;;;;2.00;1.67;;;18.80;66.20;;;;;;10543376;28;20036;-57
2021/05/10 12:45:56;;;;;;;1.95;1.58;;;18.90;66.20;;;;;;10570439;28;20032;-57
2021/05/10 12:51:08;;;;;;;3.03;1.30;;;18.90;66.00;;;;;;10542804;28;20137;-57
2021/05/10 12:56:16;;;;;;;1.90;1.50;;;18.80;65.90;;;;;;10556347;28;20166;-57
2021/05/10 13:01:26;;;;;;;2.00;1.63;;;18.90;65.90;;;;;;10565794;28;20376;-56
2021/05/10 13:06:36;;;;;;;3.28;1.95;;;18.90;65.90;;;;;;10542203;28;20073;-57
2021/05/10 13:11:39;;;;;;;;;;;18.80;65.80;;;;;;10562332;28;20035;-57
2021/05/10 13:33:32;;;;;;;2.55;1.67;;;18.80;65.80;;;;;;10565962;28;20032;-57
2021/05/10 13:38:34;;;;;;;3.42;2.13;;;18.80;65.80;;;;;;10548559;28;20070;-56
2021/05/10 13:49:12;;;;;;;3.53;2.08;;;18.80;66.10;;;;;;10525308;28;20110;-57
2021/05/10 13:54:22;;;;;;;2.88;1.70;;;18.90;66.20;;;;;;10556440;28;20349;-57
2021/05/10 13:59:29;;;;;;;2.90;2.13;;;18.90;66.20;;;;;;10568503;28;20024;-57
2021/05/10 14:04:30;;;;;;;2.45;2.25;;;18.90;66.10;;;;;;10550674;28;20472;-56
2021/05/10 14:09:31;;;;;;;2.00;1.70;;;18.90;66.10;;;;;;10566474;28;20020;-56
2021/05/10 14:14:33;;;;;;;2.78;2.35;;;19.00;66.10;;;;;;10539521;28;20476;-55
2021/05/10 14:19:34;;;;;;;3.55;2.00;;;19.00;66.10;;;;;;10529458;28;20025;-57
2021/05/10 14:24:34;;;;;;;3.20;2.25;;;19.00;66.00;;;;;;10548456;28;20123;-56
2021/05/10 14:29:35;;;;;;;2.88;2.00;;;19.00;66.00;;;;;;10539272;28;20028;-57
2021/05/10 14:34:36;;;;;;;2.55;2.10;;;19.10;65.90;;;;;;10538438;28;20111;-58
2021/05/10 14:39:37;;;;;;;2.67;2.10;;;19.10;65.90;;;;;;10538598;28;20063;-57
2021/05/10 14:44:38;;;;;;;2.60;1.60;;;19.10;65.80;;;;;;10538854;28;20491;-56
2021/05/10 14:49:39;;;;;;;3.05;1.85;;;19.10;65.60;;;;;;10520477;28;20027;-56
2021/05/10 14:54:39;;;;;;;3.10;2.20;;;19.10;65.50;;;;;;10552171;28;20051;-56
2021/05/10 14:59:40;;;;;;;2.72;1.83;;;19.10;65.40;;;;;;10541203;28;20051;-57
2021/05/10 15:04:41;;;;;;;2.55;1.75;;;19.10;65.30;;;;;;10551040;28;20034;-57
2021/05/10 15:09:42;;;;;;;2.33;1.65;;;19.10;65.00;;;;;;10555643;28;20047;-56
2021/05/10 15:14:43;;;;;;;2.80;1.50;;;19.00;64.80;;;;;;10580554;28;20027;-56
2021/05/10 15:19:44;;;;;;;3.22;1.80;;;19.00;64.80;;;;;;10539615;28;20028;-55
2021/05/10 15:24:45;;;;;;;2.63;1.90;;;19.00;64.70;;;;;;10558018;28;20078;-55
2021/05/10 15:29:45;;;;;;;3.08;1.60;;;19.10;64.70;;;;;;10558945;28;20107;-56
2021/05/10 15:34:46;;;;;;;2.55;1.80;;;19.10;64.70;;;;;;10558666;28;20034;-55
2021/05/10 15:39:47;;;;;;;3.53;1.95;;;19.10;64.80;;;;;;10555254;28;20177;-55
2021/05/10 15:44:48;;;;;;;2.80;1.50;;;19.10;64.70;;;;;;10523935;28;20536;-56
2021/05/10 15:49:50;;;;;;;3.22;1.70;;;19.10;64.30;;;;;;10555479;28;20020;-56
2021/05/10 15:54:51;;;;;;;2.50;1.90;;;19.10;64.20;;;;;;10558941;28;20371;-55
2021/05/10 15:59:51;;;;;;;2.58;1.85;;;19.10;64.10;;;;;;10575080;28;20139;-55
2021/05/10 16:04:52;;;;;;;3.13;1.88;;;19.10;64.10;;;;;;10557323;28;20108;-55
2021/05/10 16:09:53;;;;;;;3.55;2.00;;;19.10;63.80;;;;;;10569869;28;20182;-56
2021/05/10 16:14:56;;;;;;;3.35;1.80;;;19.10;63.80;;;;;;10577218;28;20106;-55
2021/05/10 16:19:56;;;;;;;2.42;1.73;;;19.10;63.70;;;;;;10570913;28;20122;-55
2021/05/10 16:24:57;;;;;;;4.20;1.95;;;19.10;63.90;;;;;;10547073;28;20045;-56
2021/05/10 16:29:58;;;;;;;5.18;2.45;;;19.10;63.90;;;;;;10563567;28;20504;-53
2021/05/10 16:34:58;;;;;;;3.30;2.00;;;19.10;65.00;;;;;;10559246;28;20548;-51
2021/05/10 16:39:59;;;;;;;4.07;2.13;;;19.20;65.70;;;;;;10545045;28;20442;-50
2021/05/10 16:45:00;;;;;;;3.58;2.10;;;19.20;67.00;;;;;;10566146;28;20063;-52
2021/05/10 16:50:01;;;;;;;37.38;21.60;;;19.20;66.10;;;;;;10569084;28;20031;-56
2021/05/10 16:55:03;;;;;;;12.65;6.28;;;19.20;65.90;;;;;;10552947;28;20110;-57
2021/05/10 17:00:06;;;;;;;10.23;5.32;;;19.30;66.00;;;;;;10566406;28;20605;-60
2021/05/10 17:05:07;;;;;;;8.55;5.40;;;19.30;65.70;;;;;;10556379;28;20060;-60
2021/05/10 17:10:08;;;;;;;10.80;5.15;;;19.30;65.80;;;;;;10540887;28;20072;-59
2021/05/10 17:15:10;;;;;;;10.52;4.55;;;19.30;65.70;;;;;;10568969;28;20066;-60
2021/05/10 17:20:11;;;;;;;9.93;4.97;;;19.30;65.80;;;;;;10569371;28;20027;-59
2021/05/10 17:25:12;;;;;;;9.05;4.00;;;19.30;65.80;;;;;;10570767;28;20051;-60
2021/05/10 17:30:14;;;;;;;8.45;4.32;;;19.40;65.80;;;;;;10570498;28;20028;-61
2021/05/10 17:35:14;;;;;;;6.72;3.63;;;19.40;65.70;;;;;;10561879;28;20368;-61
2021/05/10 17:40:16;;;;;;;7.80;3.90;;;19.30;65.70;;;;;;10577468;28;20043;-59
2021/05/10 17:45:17;;;;;;;9.30;3.83;;;19.40;65.80;;;;;;10560342;28;20032;-59
2021/05/10 17:50:17;;;;;;;10.90;3.85;;;19.40;66.00;;;;;;10554273;28;20032;-59
2021/05/10 17:55:18;;;;;;;8.57;3.78;;;19.40;67.00;;;;;;10550351;28;20376;-61
2021/05/10 18:00:22;;;;;;;7.32;3.85;;;19.40;66.40;;;;;;10572212;28;20375;-61
2021/05/10 18:05:23;;;;;;;8.43;4.00;;;19.40;66.30;;;;;;10567040;28;20031;-61
2021/05/10 18:10:23;;;;;;;8.98;4.00;;;19.40;66.90;;;;;;10544839;28;20054;-61
2021/05/10 18:15:26;;;;;;;8.05;3.67;;;19.40;68.20;;;;;;10523360;28;20036;-61
2021/05/10 18:20:27;;;;;;;6.70;3.85;;;19.40;67.90;;;;;;10540155;28;20042;-61
2021/05/10 18:25:27;;;;;;;5.68;3.17;;;19.40;67.00;;;;;;10554895;28;20028;-61
2021/05/10 18:30:28;;;;;;;5.78;2.95;;;19.40;66.90;;;;;;10536900;28;20040;-61
2021/05/10 18:35:30;;;;;;;7.32;3.80;;;19.40;66.90;;;;;;10567605;28;20588;-61
2021/05/10 18:40:30;;;;;;;7.65;3.55;;;19.40;66.70;;;;;;10579079;28;20503;-61
2021/05/10 18:45:35;;;;;;;5.10;2.90;;;19.40;66.50;;;;;;10520752;28;20103;-61
2021/05/10 18:55:37;;;;;;;6.85;2.88;;;19.30;66.30;;;;;;10552219;28;20036;-61
2021/05/10 19:00:42;;;;;;;5.13;3.30;;;19.30;66.10;;;;;;10538917;28;20054;-61
2021/05/10 19:05:43;;;;;;;7.03;3.28;;;19.30;66.10;;;;;;10540783;28;20107;-62
2021/05/10 19:10:44;;;;;;;5.38;2.85;;;19.30;66.00;;;;;;10555369;28;20039;-61
2021/05/10 19:15:45;;;;;;;7.88;3.08;;;19.30;66.20;;;;;;10555956;28;20039;-61
2021/05/10 19:20:46;;;;;;;10.70;3.15;;;19.30;66.30;;;;;;10575925;28;20541;-61
2021/05/10 19:25:46;;;;;;;11.35;2.70;;;19.30;66.50;;;;;;10587107;28;20024;-60
2021/05/10 19:30:47;;;;;;;7.05;2.75;;;19.30;66.70;;;;;;10542432;28;20024;-61
2021/05/10 19:35:48;;;;;;;5.35;2.45;;;19.30;66.70;;;;;;10569620;28;20106;-60
2021/05/10 19:40:48;;;;;;;5.25;2.67;;;19.30;66.60;;;;;;10537443;28;20039;-61
2021/05/10 19:45:55;;;;;;;5.13;2.63;;;19.30;66.90;;;;;;10554590;28;20113;-59
2021/05/10 20:01:24;;;;;;;6.03;2.42;;;19.30;66.30;;;;;;10558336;28;19920;-60
2021/05/10 20:06:25;;;;;;;6.28;2.45;;;19.30;66.30;;;;;;10582790;28;20535;-59
2021/05/10 20:11:26;;;;;;;5.25;2.40;;;19.30;66.10;;;;;;10536081;28;20034;-59
2021/05/10 20:16:27;;;;;;;5.97;2.50;;;19.30;66.10;;;;;;10524325;28;20054;-59
2021/05/10 20:21:28;;;;;;;7.50;2.50;;;19.30;66.00;;;;;;10531633;28;20036;-59
2021/05/10 20:26:28;;;;;;;5.15;2.50;;;19.30;66.00;;;;;;10524311;28;20093;-59
2021/05/10 20:31:29;;;;;;;6.40;3.03;;;19.20;65.80;;;;;;10542861;28;20016;-60
2021/05/10 20:36:30;;;;;;;8.15;2.50;;;19.30;65.80;;;;;;10566951;28;20643;-59
2021/05/10 20:41:33;;;;;;;6.60;3.60;;;19.20;65.70;;;;;;10571776;28;20053;-59
2021/05/10 20:46:33;;;;;;;3.95;2.30;;;19.20;65.70;;;;;;10541334;28;20513;-60
2021/05/10 20:51:34;;;;;;;6.60;2.60;;;19.20;65.60;;;;;;10524620;28;20057;-59
2021/05/10 20:56:35;;;;;;;3.17;2.28;;;19.20;65.60;;;;;;10570599;28;20115;-60
2021/05/10 21:01:36;;;;;;;4.53;2.35;;;19.20;65.60;;;;;;10562372;28;20476;-59
2021/05/10 21:06:37;;;;;;;4.00;2.28;;;19.20;65.50;;;;;;10524789;28;20028;-60
2021/05/10 21:11:37;;;;;;;6.22;2.30;;;19.20;65.50;;;;;;10542414;28;20073;-59
2021/05/10 21:16:38;;;;;;;4.13;2.38;;;19.20;65.50;;;;;;10524567;28;20067;-59
2021/05/10 21:21:39;;;;;;;4.78;1.90;;;19.20;65.50;;;;;;10561630;28;20449;-59
2021/05/10 21:26:40;;;;;;;3.78;2.15;;;19.20;65.40;;;;;;10542196;28;20032;-59
2021/05/10 21:31:41;;;;;;;3.90;1.88;;;19.20;65.40;;;;;;10541785;28;20024;-59
2021/05/10 21:36:42;;;;;;;5.60;1.92;;;19.20;65.40;;;;;;10541486;28;20496;-59
2021/05/10 21:41:42;;;;;;;3.58;2.13;;;19.20;65.40;;;;;;10541365;28;20066;-59
2021/05/10 21:46:47;;;;;;;4.57;2.33;;;19.20;65.30;;;;;;10522163;28;20093;-59
2021/05/10 21:51:47;;;;;;;5.95;2.35;;;19.20;65.30;;;;;;10540746;28;20371;-59
2021/05/10 21:56:48;;;;;;;4.47;2.53;;;19.20;65.30;;;;;;10549330;28;20039;-60
2021/05/10 22:01:49;;;;;;;3.75;2.15;;;19.20;65.30;;;;;;10537059;28;20110;-60
2021/05/10 22:06:50;;;;;;;6.35;1.92;;;19.20;65.20;;;;;;10540301;28;20119;-60
2021/05/10 22:11:50;;;;;;;4.93;2.33;;;19.20;65.20;;;;;;10521987;28;20032;-59
2021/05/10 22:16:51;;;;;;;3.67;1.80;;;19.20;65.20;;;;;;10560937;28;20417;-59
2021/05/10 22:21:53;;;;;;;1.95;1.50;;;19.10;65.10;;;;;;10544404;28;20035;-59
2021/05/10 22:27:01;;;;;;;3.55;2.10;;;19.10;65.10;;;;;;10561231;28;20054;-59
2021/05/10 22:32:02;;;;;;;2.78;1.58;;;19.10;65.20;;;;;;10540414;28;20038;-59
2021/05/10 22:37:07;;;;;;;4.03;1.77;;;19.20;65.20;;;;;;10539402;28;20036;-59
2021/05/10 22:42:16;;;;;;;2.90;1.42;;;19.10;65.00;;;;;;10538727;28;20035;-59
2021/05/10 23:18:56;;;;;;;3.42;2.38;;;19.10;64.80;;;;;;10521444;28;20036;-59
2021/05/10 23:23:57;;;;;;;4.05;1.83;;;19.10;64.80;;;;;;10538004;28;20484;-59
2021/05/10 23:28:57;;;;;;;4.55;2.15;;;19.10;64.80;;;;;;10538556;28;20112;-59
2021/05/10 23:33:58;;;;;;;3.03;2.03;;;19.10;64.70;;;;;;10552558;28;20107;-59
2021/05/10 23:38:59;;;;;;;4.38;2.05;;;19.10;64.70;;;;;;10537798;28;20093;-59
2021/05/10 23:43:59;;;;;;;4.53;2.05;;;19.10;64.70;;;;;;10542938;28;20038;-59
2021/05/10 23:49:00;;;;;;;3.63;2.15;;;19.10;64.70;;;;;;10557121;28;20165;-59
2021/05/10 23:54:01;;;;;;;2.88;1.92;;;19.00;64.60;;;;;;10545739;28;20099;-59
2021/05/10 23:59:01;;;;;;;3.97;2.10;;;19.10;64.60;;;;;;10544091;28;20036;-59
